5A6

Winona-Montgomery County Airport

Winona, Mississippi, USA
METAR K5A6 092115Z AUTO 33007KT 2SM BR OVC004 02/02 A3013 RMK AO2 T00150015
Observed Flight Rules
Dec-9 @ 21:15 UTC (24 minutes ago) Instrument Flight Rules
Wind Visibility Clouds Conditions
330° at 7 knots 2 miles
  • Overcast at 400' AGL
  • Mist
Temperatures Readings
Current 2°C / 36°F
Dewpoint 2°C / 36°F
Humidity 100%
Altimeter 30.13" Hg
Pressure 1020 hPa
Elevation 111
METAR K5A6 092115Z AUTO 33007KT 2SM BR OVC004 02/02 A3013 RMK AO2 T00150015
Observed Flight Rules
Dec-9 @ 21:15 UTC
(24 minutes ago)
LIFR
Wind Visibility
330° at 7 knots 2 miles
Clouds
  • Overcast at 400' AGL
Conditions
  • Mist
Temperature Dewpoint
2°C / 36°F 2°C / 36°F
Humidity Altimeter Pressure
100% 30.13" Hg 1020 hPa